sensor_id;sensor_type;location;lat;lon;timestamp;P1;durP1;ratioP1;P2;durP2;ratioP2
16804;SDS011;8520;50.102;20.010;2023-10-31T00:02:13;39.17;;;36.90;;
16804;SDS011;8520;50.102;20.010;2023-10-31T00:04:41;39.63;;;37.20;;
16804;SDS011;8520;50.102;20.010;2023-10-31T00:07:09;39.30;;;37.27;;
16804;SDS011;8520;50.102;20.010;2023-10-31T00:09:37;40.23;;;38.07;;
16804;SDS011;8520;50.102;20.010;2023-10-31T00:12:06;40.00;;;37.73;;
16804;SDS011;8520;50.102;20.010;2023-10-31T00:14:34;40.70;;;38.53;;
16804;SDS011;8520;50.102;20.010;2023-10-31T00:17:04;40.33;;;38.27;;
16804;SDS011;8520;50.102;20.010;2023-10-31T00:19:32;41.80;;;39.60;;
16804;SDS011;8520;50.102;20.010;2023-10-31T00:22:00;41.60;;;39.50;;
16804;SDS011;8520;50.102;20.010;2023-10-31T00:24:28;41.47;;;39.40;;
16804;SDS011;8520;50.102;20.010;2023-10-31T00:26:56;42.13;;;39.95;;
16804;SDS011;8520;50.102;20.010;2023-10-31T00:29:24;42.63;;;40.08;;
16804;SDS011;8520;50.102;20.010;2023-10-31T00:31:52;41.70;;;39.70;;
16804;SDS011;8520;50.102;20.010;2023-10-31T00:34:21;41.93;;;39.87;;
16804;SDS011;8520;50.102;20.010;2023-10-31T00:36:49;42.87;;;40.50;;
16804;SDS011;8520;50.102;20.010;2023-10-31T00:39:17;43.60;;;41.30;;
16804;SDS011;8520;50.102;20.010;2023-10-31T00:41:45;43.13;;;40.73;;
16804;SDS011;8520;50.102;20.010;2023-10-31T00:44:13;43.90;;;41.13;;
16804;SDS011;8520;50.102;20.010;2023-10-31T00:46:41;42.83;;;40.73;;
16804;SDS011;8520;50.102;20.010;2023-10-31T00:49:10;42.97;;;40.37;;
16804;SDS011;8520;50.102;20.010;2023-10-31T00:51:39;42.85;;;40.33;;
16804;SDS011;8520;50.102;20.010;2023-10-31T00:54:07;41.60;;;39.57;;
16804;SDS011;8520;50.102;20.010;2023-10-31T00:56:35;41.80;;;39.30;;
16804;SDS011;8520;50.102;20.010;2023-10-31T00:59:03;42.10;;;39.58;;
16804;SDS011;8520;50.102;20.010;2023-10-31T01:01:31;41.60;;;38.97;;
16804;SDS011;8520;50.102;20.010;2023-10-31T01:04:00;39.88;;;37.75;;
16804;SDS011;8520;50.102;20.010;2023-10-31T01:06:28;39.38;;;37.08;;
16804;SDS011;8520;50.102;20.010;2023-10-31T01:08:57;39.47;;;37.27;;
16804;SDS011;8520;50.102;20.010;2023-10-31T01:11:25;38.33;;;35.83;;
16804;SDS011;8520;50.102;20.010;2023-10-31T01:13:53;37.08;;;34.90;;
16804;SDS011;8520;50.102;20.010;2023-10-31T01:16:21;36.07;;;34.17;;
16804;SDS011;8520;50.102;20.010;2023-10-31T01:18:49;34.97;;;33.23;;
16804;SDS011;8520;50.102;20.010;2023-10-31T01:21:17;34.22;;;32.35;;
16804;SDS011;8520;50.102;20.010;2023-10-31T01:23:46;33.78;;;31.65;;
16804;SDS011;8520;50.102;20.010;2023-10-31T01:26:15;33.15;;;31.15;;
16804;SDS011;8520;50.102;20.010;2023-10-31T01:28:43;33.00;;;30.85;;
16804;SDS011;8520;50.102;20.010;2023-10-31T01:31:11;32.90;;;30.77;;
16804;SDS011;8520;50.102;20.010;2023-10-31T01:33:39;32.22;;;30.20;;
16804;SDS011;8520;50.102;20.010;2023-10-31T01:36:07;32.17;;;30.08;;
16804;SDS011;8520;50.102;20.010;2023-10-31T01:38:37;31.08;;;29.33;;
16804;SDS011;8520;50.102;20.010;2023-10-31T01:41:05;30.90;;;29.02;;
16804;SDS011;8520;50.102;20.010;2023-10-31T01:43:34;29.88;;;28.10;;
16804;SDS011;8520;50.102;20.010;2023-10-31T01:46:03;29.50;;;27.92;;
16804;SDS011;8520;50.102;20.010;2023-10-31T01:48:32;29.35;;;27.85;;
16804;SDS011;8520;50.102;20.010;2023-10-31T01:51:01;27.58;;;26.35;;
16804;SDS011;8520;50.102;20.010;2023-10-31T01:53:30;28.20;;;26.52;;
16804;SDS011;8520;50.102;20.010;2023-10-31T01:55:59;27.48;;;26.17;;
16804;SDS011;8520;50.102;20.010;2023-10-31T01:58:29;28.38;;;26.88;;
16804;SDS011;8520;50.102;20.010;2023-10-31T02:00:59;27.52;;;25.85;;
16804;SDS011;8520;50.102;20.010;2023-10-31T02:03:28;27.70;;;26.27;;
16804;SDS011;8520;50.102;20.010;2023-10-31T02:05:56;29.08;;;27.48;;
16804;SDS011;8520;50.102;20.010;2023-10-31T02:08:24;29.42;;;27.83;;
16804;SDS011;8520;50.102;20.010;2023-10-31T02:10:53;29.13;;;27.58;;
16804;SDS011;8520;50.102;20.010;2023-10-31T02:13:21;28.33;;;26.77;;
16804;SDS011;8520;50.102;20.010;2023-10-31T02:15:49;27.88;;;26.27;;
16804;SDS011;8520;50.102;20.010;2023-10-31T02:18:18;28.08;;;26.58;;
16804;SDS011;8520;50.102;20.010;2023-10-31T02:20:46;27.33;;;25.70;;
16804;SDS011;8520;50.102;20.010;2023-10-31T02:23:16;27.08;;;25.52;;
16804;SDS011;8520;50.102;20.010;2023-10-31T02:25:44;27.63;;;25.92;;
16804;SDS011;8520;50.102;20.010;2023-10-31T02:28:12;28.13;;;26.15;;
16804;SDS011;8520;50.102;20.010;2023-10-31T02:30:40;27.15;;;25.45;;
16804;SDS011;8520;50.102;20.010;2023-10-31T02:33:08;27.83;;;25.83;;
16804;SDS011;8520;50.102;20.010;2023-10-31T02:35:36;28.60;;;26.70;;
16804;SDS011;8520;50.102;20.010;2023-10-31T02:38:04;29.00;;;27.00;;
16804;SDS011;8520;50.102;20.010;2023-10-31T02:40:34;30.23;;;27.85;;
16804;SDS011;8520;50.102;20.010;2023-10-31T02:43:03;30.35;;;28.08;;
16804;SDS011;8520;50.102;20.010;2023-10-31T02:45:32;30.55;;;28.20;;
16804;SDS011;8520;50.102;20.010;2023-10-31T02:48:00;31.17;;;28.77;;
16804;SDS011;8520;50.102;20.010;2023-10-31T02:50:28;29.60;;;27.42;;
16804;SDS011;8520;50.102;20.010;2023-10-31T02:52:56;27.38;;;25.40;;
16804;SDS011;8520;50.102;20.010;2023-10-31T02:55:24;26.33;;;24.50;;
16804;SDS011;8520;50.102;20.010;2023-10-31T02:57:53;26.70;;;24.55;;
16804;SDS011;8520;50.102;20.010;2023-10-31T03:00:21;26.65;;;24.50;;
16804;SDS011;8520;50.102;20.010;2023-10-31T03:02:50;27.38;;;25.00;;
16804;SDS011;8520;50.102;20.010;2023-10-31T03:05:18;26.63;;;24.60;;
16804;SDS011;8520;50.102;20.010;2023-10-31T03:07:46;26.60;;;24.60;;
16804;SDS011;8520;50.102;20.010;2023-10-31T03:10:14;26.63;;;24.55;;
16804;SDS011;8520;50.102;20.010;2023-10-31T03:12:42;27.45;;;25.08;;
16804;SDS011;8520;50.102;20.010;2023-10-31T03:15:13;24.30;;;22.70;;
16804;SDS011;8520;50.102;20.010;2023-10-31T03:17:41;22.23;;;20.90;;
16804;SDS011;8520;50.102;20.010;2023-10-31T03:20:10;20.88;;;19.52;;
16804;SDS011;8520;50.102;20.010;2023-10-31T03:22:38;22.17;;;20.33;;
16804;SDS011;8520;50.102;20.010;2023-10-31T03:25:06;21.30;;;19.77;;
16804;SDS011;8520;50.102;20.010;2023-10-31T03:27:34;20.27;;;19.05;;
16804;SDS011;8520;50.102;20.010;2023-10-31T03:30:02;20.92;;;19.58;;
16804;SDS011;8520;50.102;20.010;2023-10-31T03:32:33;21.10;;;19.50;;
16804;SDS011;8520;50.102;20.010;2023-10-31T03:35:02;20.33;;;19.13;;
16804;SDS011;8520;50.102;20.010;2023-10-31T03:37:30;21.00;;;19.65;;
16804;SDS011;8520;50.102;20.010;2023-10-31T03:39:58;21.17;;;19.50;;
16804;SDS011;8520;50.102;20.010;2023-10-31T03:42:26;19.63;;;18.23;;
16804;SDS011;8520;50.102;20.010;2023-10-31T03:44:55;19.20;;;17.70;;
16804;SDS011;8520;50.102;20.010;2023-10-31T03:47:23;18.90;;;17.58;;
16804;SDS011;8520;50.102;20.010;2023-10-31T03:49:52;21.60;;;19.40;;
16804;SDS011;8520;50.102;20.010;2023-10-31T03:52:20;22.50;;;20.23;;
16804;SDS011;8520;50.102;20.010;2023-10-31T03:54:48;20.80;;;18.80;;
16804;SDS011;8520;50.102;20.010;2023-10-31T03:57:16;21.63;;;19.15;;
16804;SDS011;8520;50.102;20.010;2023-10-31T03:59:44;20.80;;;18.58;;
16804;SDS011;8520;50.102;20.010;2023-10-31T04:02:12;20.42;;;17.75;;
16804;SDS011;8520;50.102;20.010;2023-10-31T04:04:41;18.48;;;16.65;;
16804;SDS011;8520;50.102;20.010;2023-10-31T04:07:10;16.42;;;14.93;;
16804;SDS011;8520;50.102;20.010;2023-10-31T04:09:38;17.60;;;14.30;;
16804;SDS011;8520;50.102;20.010;2023-10-31T04:12:06;16.88;;;15.27;;
16804;SDS011;8520;50.102;20.010;2023-10-31T04:14:34;18.90;;;16.80;;
16804;SDS011;8520;50.102;20.010;2023-10-31T04:17:02;18.05;;;16.33;;
16804;SDS011;8520;50.102;20.010;2023-10-31T04:19:30;18.17;;;16.30;;
16804;SDS011;8520;50.102;20.010;2023-10-31T04:21:58;20.48;;;16.15;;
16804;SDS011;8520;50.102;20.010;2023-10-31T04:24:28;19.00;;;16.20;;
16804;SDS011;8520;50.102;20.010;2023-10-31T04:26:55;18.67;;;16.35;;
16804;SDS011;8520;50.102;20.010;2023-10-31T04:29:23;18.73;;;16.42;;
16804;SDS011;8520;50.102;20.010;2023-10-31T04:31:51;17.58;;;15.35;;
16804;SDS011;8520;50.102;20.010;2023-10-31T04:34:20;17.23;;;14.27;;
16804;SDS011;8520;50.102;20.010;2023-10-31T04:36:48;15.82;;;13.40;;
16804;SDS011;8520;50.102;20.010;2023-10-31T04:39:16;12.73;;;11.60;;
16804;SDS011;8520;50.102;20.010;2023-10-31T04:41:45;12.30;;;11.18;;
16804;SDS011;8520;50.102;20.010;2023-10-31T04:44:13;12.93;;;11.77;;
16804;SDS011;8520;50.102;20.010;2023-10-31T04:46:41;15.05;;;13.48;;
16804;SDS011;8520;50.102;20.010;2023-10-31T04:49:09;14.57;;;13.25;;
16804;SDS011;8520;50.102;20.010;2023-10-31T04:51:37;14.25;;;12.90;;
16804;SDS011;8520;50.102;20.010;2023-10-31T04:54:05;14.07;;;12.85;;
16804;SDS011;8520;50.102;20.010;2023-10-31T04:56:33;14.45;;;13.07;;
16804;SDS011;8520;50.102;20.010;2023-10-31T04:59:03;13.73;;;12.07;;
16804;SDS011;8520;50.102;20.010;2023-10-31T05:01:31;13.45;;;11.80;;
16804;SDS011;8520;50.102;20.010;2023-10-31T05:03:59;12.98;;;11.90;;
16804;SDS011;8520;50.102;20.010;2023-10-31T05:06:38;12.20;;;11.00;;
16804;SDS011;8520;50.102;20.010;2023-10-31T05:09:06;10.65;;;9.85;;
16804;SDS011;8520;50.102;20.010;2023-10-31T05:11:35;10.82;;;9.70;;
16804;SDS011;8520;50.102;20.010;2023-10-31T05:14:06;9.75;;;8.88;;
16804;SDS011;8520;50.102;20.010;2023-10-31T05:16:38;9.98;;;9.18;;
16804;SDS011;8520;50.102;20.010;2023-10-31T05:19:06;8.77;;;8.20;;
16804;SDS011;8520;50.102;20.010;2023-10-31T05:21:34;8.48;;;7.80;;
16804;SDS011;8520;50.102;20.010;2023-10-31T05:24:02;7.45;;;6.80;;
16804;SDS011;8520;50.102;20.010;2023-10-31T05:26:30;6.68;;;6.10;;
16804;SDS011;8520;50.102;20.010;2023-10-31T05:28:59;7.35;;;6.05;;
16804;SDS011;8520;50.102;20.010;2023-10-31T05:31:28;6.35;;;5.85;;
16804;SDS011;8520;50.102;20.010;2023-10-31T05:33:56;5.72;;;5.25;;
16804;SDS011;8520;50.102;20.010;2023-10-31T05:36:24;5.72;;;5.20;;
16804;SDS011;8520;50.102;20.010;2023-10-31T05:38:54;5.80;;;5.20;;
16804;SDS011;8520;50.102;20.010;2023-10-31T05:41:22;6.10;;;4.60;;
16804;SDS011;8520;50.102;20.010;2023-10-31T05:43:50;5.28;;;4.88;;
16804;SDS011;8520;50.102;20.010;2023-10-31T05:46:18;6.15;;;5.45;;
16804;SDS011;8520;50.102;20.010;2023-10-31T05:48:48;5.15;;;4.60;;
16804;SDS011;8520;50.102;20.010;2023-10-31T05:51:18;5.93;;;4.30;;
16804;SDS011;8520;50.102;20.010;2023-10-31T05:53:46;4.70;;;4.10;;
16804;SDS011;8520;50.102;20.010;2023-10-31T05:56:15;9.82;;;4.80;;
16804;SDS011;8520;50.102;20.010;2023-10-31T05:58:43;5.07;;;4.57;;
16804;SDS011;8520;50.102;20.010;2023-10-31T06:01:11;4.47;;;4.07;;
16804;SDS011;8520;50.102;20.010;2023-10-31T06:03:40;5.97;;;4.00;;
16804;SDS011;8520;50.102;20.010;2023-10-31T06:06:11;4.57;;;3.50;;
16804;SDS011;8520;50.102;20.010;2023-10-31T06:08:39;4.13;;;3.83;;
16804;SDS011;8520;50.102;20.010;2023-10-31T06:11:07;3.67;;;3.38;;
16804;SDS011;8520;50.102;20.010;2023-10-31T06:13:35;4.82;;;3.47;;
16804;SDS011;8520;50.102;20.010;2023-10-31T06:16:04;3.55;;;3.25;;
16804;SDS011;8520;50.102;20.010;2023-10-31T06:18:32;6.25;;;4.05;;
16804;SDS011;8520;50.102;20.010;2023-10-31T06:21:01;4.68;;;3.80;;
16804;SDS011;8520;50.102;20.010;2023-10-31T06:23:30;5.32;;;3.45;;
16804;SDS011;8520;50.102;20.010;2023-10-31T06:25:58;3.58;;;2.83;;
16804;SDS011;8520;50.102;20.010;2023-10-31T06:28:26;3.08;;;2.88;;
16804;SDS011;8520;50.102;20.010;2023-10-31T06:30:54;3.30;;;3.03;;
16804;SDS011;8520;50.102;20.010;2023-10-31T06:33:22;5.80;;;3.58;;
16804;SDS011;8520;50.102;20.010;2023-10-31T06:35:50;4.85;;;3.50;;
16804;SDS011;8520;50.102;20.010;2023-10-31T06:38:20;2.80;;;2.58;;
16804;SDS011;8520;50.102;20.010;2023-10-31T06:40:49;3.28;;;2.95;;
16804;SDS011;8520;50.102;20.010;2023-10-31T06:43:17;6.95;;;2.95;;
16804;SDS011;8520;50.102;20.010;2023-10-31T06:45:45;6.18;;;3.28;;
16804;SDS011;8520;50.102;20.010;2023-10-31T06:48:13;7.65;;;3.40;;
16804;SDS011;8520;50.102;20.010;2023-10-31T06:50:41;4.40;;;3.10;;
16804;SDS011;8520;50.102;20.010;2023-10-31T06:53:09;3.67;;;3.17;;
16804;SDS011;8520;50.102;20.010;2023-10-31T06:55:37;5.78;;;3.47;;
16804;SDS011;8520;50.102;20.010;2023-10-31T06:58:07;4.85;;;3.50;;
16804;SDS011;8520;50.102;20.010;2023-10-31T07:00:35;4.47;;;3.38;;
16804;SDS011;8520;50.102;20.010;2023-10-31T07:03:04;3.53;;;3.08;;
16804;SDS011;8520;50.102;20.010;2023-10-31T07:05:35;4.55;;;3.30;;
16804;SDS011;8520;50.102;20.010;2023-10-31T07:08:04;3.35;;;2.67;;
16804;SDS011;8520;50.102;20.010;2023-10-31T07:10:32;4.22;;;3.17;;
16804;SDS011;8520;50.102;20.010;2023-10-31T07:13:00;7.10;;;3.40;;
16804;SDS011;8520;50.102;20.010;2023-10-31T07:15:29;4.32;;;3.40;;
16804;SDS011;8520;50.102;20.010;2023-10-31T07:17:57;3.28;;;3.08;;
16804;SDS011;8520;50.102;20.010;2023-10-31T07:20:25;4.32;;;3.13;;
16804;SDS011;8520;50.102;20.010;2023-10-31T07:22:53;5.07;;;3.40;;
16804;SDS011;8520;50.102;20.010;2023-10-31T07:25:21;3.28;;;2.97;;
16804;SDS011;8520;50.102;20.010;2023-10-31T07:27:49;3.03;;;2.83;;
16804;SDS011;8520;50.102;20.010;2023-10-31T07:30:17;5.68;;;3.05;;
16804;SDS011;8520;50.102;20.010;2023-10-31T07:32:47;3.58;;;3.28;;
16804;SDS011;8520;50.102;20.010;2023-10-31T07:35:15;4.20;;;2.90;;
16804;SDS011;8520;50.102;20.010;2023-10-31T07:37:43;6.22;;;4.13;;
16804;SDS011;8520;50.102;20.010;2023-10-31T07:40:11;4.22;;;3.05;;
16804;SDS011;8520;50.102;20.010;2023-10-31T07:42:40;6.47;;;3.60;;
16804;SDS011;8520;50.102;20.010;2023-10-31T07:45:08;4.07;;;3.33;;
16804;SDS011;8520;50.102;20.010;2023-10-31T07:47:37;3.63;;;3.25;;
16804;SDS011;8520;50.102;20.010;2023-10-31T07:50:06;3.95;;;3.45;;
16804;SDS011;8520;50.102;20.010;2023-10-31T07:52:35;4.50;;;3.30;;
16804;SDS011;8520;50.102;20.010;2023-10-31T07:55:03;3.63;;;3.30;;
16804;SDS011;8520;50.102;20.010;2023-10-31T07:57:31;4.00;;;3.70;;
16804;SDS011;8520;50.102;20.010;2023-10-31T07:59:59;4.82;;;4.35;;
16804;SDS011;8520;50.102;20.010;2023-10-31T08:02:27;5.45;;;3.80;;
16804;SDS011;8520;50.102;20.010;2023-10-31T08:04:55;5.57;;;3.25;;
16804;SDS011;8520;50.102;20.010;2023-10-31T08:07:24;5.63;;;3.50;;
16804;SDS011;8520;50.102;20.010;2023-10-31T08:09:56;3.97;;;3.65;;
16804;SDS011;8520;50.102;20.010;2023-10-31T08:12:24;4.30;;;3.70;;
16804;SDS011;8520;50.102;20.010;2023-10-31T08:14:52;4.03;;;3.60;;
16804;SDS011;8520;50.102;20.010;2023-10-31T08:17:20;4.90;;;3.72;;
16804;SDS011;8520;50.102;20.010;2023-10-31T08:19:48;4.38;;;4.03;;
16804;SDS011;8520;50.102;20.010;2023-10-31T08:22:16;6.00;;;3.88;;
16804;SDS011;8520;50.102;20.010;2023-10-31T08:24:45;3.63;;;3.38;;
16804;SDS011;8520;50.102;20.010;2023-10-31T08:27:13;3.83;;;3.45;;
16804;SDS011;8520;50.102;20.010;2023-10-31T08:29:41;4.82;;;4.18;;
16804;SDS011;8520;50.102;20.010;2023-10-31T08:32:09;4.18;;;3.78;;
16804;SDS011;8520;50.102;20.010;2023-10-31T08:34:37;4.57;;;3.63;;
16804;SDS011;8520;50.102;20.010;2023-10-31T08:37:05;4.25;;;3.85;;
16804;SDS011;8520;50.102;20.010;2023-10-31T08:39:33;3.95;;;3.70;;
16804;SDS011;8520;50.102;20.010;2023-10-31T08:42:03;4.07;;;3.78;;
16804;SDS011;8520;50.102;20.010;2023-10-31T08:44:31;4.30;;;3.90;;
16804;SDS011;8520;50.102;20.010;2023-10-31T08:47:00;6.07;;;3.45;;
16804;SDS011;8520;50.102;20.010;2023-10-31T08:49:27;4.20;;;3.90;;
16804;SDS011;8520;50.102;20.010;2023-10-31T08:51:55;4.95;;;4.57;;
16804;SDS011;8520;50.102;20.010;2023-10-31T08:54:23;4.10;;;3.60;;
16804;SDS011;8520;50.102;20.010;2023-10-31T08:56:51;4.65;;;4.22;;
16804;SDS011;8520;50.102;20.010;2023-10-31T08:59:21;5.43;;;4.28;;
16804;SDS011;8520;50.102;20.010;2023-10-31T09:01:49;6.80;;;4.05;;
16804;SDS011;8520;50.102;20.010;2023-10-31T09:04:17;5.35;;;4.03;;
16804;SDS011;8520;50.102;20.010;2023-10-31T09:06:45;4.55;;;4.15;;
16804;SDS011;8520;50.102;20.010;2023-10-31T09:09:13;4.00;;;3.70;;
16804;SDS011;8520;50.102;20.010;2023-10-31T09:11:41;4.85;;;4.45;;
16804;SDS011;8520;50.102;20.010;2023-10-31T09:14:09;4.75;;;4.20;;
16804;SDS011;8520;50.102;20.010;2023-10-31T09:16:39;4.95;;;4.43;;
16804;SDS011;8520;50.102;20.010;2023-10-31T09:19:07;5.10;;;4.60;;
16804;SDS011;8520;50.102;20.010;2023-10-31T09:21:35;6.75;;;3.63;;
16804;SDS011;8520;50.102;20.010;2023-10-31T09:24:03;6.25;;;4.28;;
16804;SDS011;8520;50.102;20.010;2023-10-31T09:26:31;4.70;;;4.13;;
16804;SDS011;8520;50.102;20.010;2023-10-31T09:29:00;4.22;;;3.63;;
16804;SDS011;8520;50.102;20.010;2023-10-31T09:31:28;5.32;;;3.90;;
16804;SDS011;8520;50.102;20.010;2023-10-31T09:33:57;5.00;;;4.10;;
16804;SDS011;8520;50.102;20.010;2023-10-31T09:36:25;4.72;;;4.30;;
16804;SDS011;8520;50.102;20.010;2023-10-31T09:38:53;4.10;;;3.80;;
16804;SDS011;8520;50.102;20.010;2023-10-31T09:41:21;4.30;;;4.10;;
16804;SDS011;8520;50.102;20.010;2023-10-31T09:43:49;6.22;;;3.80;;
16804;SDS011;8520;50.102;20.010;2023-10-31T09:46:17;4.30;;;3.70;;
16804;SDS011;8520;50.102;20.010;2023-10-31T09:48:45;4.88;;;3.83;;
16804;SDS011;8520;50.102;20.010;2023-10-31T09:51:15;4.38;;;4.07;;
16804;SDS011;8520;50.102;20.010;2023-10-31T09:53:43;5.47;;;3.63;;
16804;SDS011;8520;50.102;20.010;2023-10-31T09:56:12;4.22;;;3.83;;
16804;SDS011;8520;50.102;20.010;2023-10-31T09:58:40;4.25;;;3.95;;
16804;SDS011;8520;50.102;20.010;2023-10-31T10:01:08;4.63;;;4.32;;
16804;SDS011;8520;50.102;20.010;2023-10-31T10:03:37;4.30;;;4.00;;
16804;SDS011;8520;50.102;20.010;2023-10-31T10:06:06;4.25;;;3.95;;
16804;SDS011;8520;50.102;20.010;2023-10-31T10:08:37;4.65;;;4.30;;
16804;SDS011;8520;50.102;20.010;2023-10-31T10:11:06;5.00;;;4.25;;
16804;SDS011;8520;50.102;20.010;2023-10-31T10:13:34;4.53;;;4.13;;
16804;SDS011;8520;50.102;20.010;2023-10-31T10:16:02;7.82;;;4.38;;
16804;SDS011;8520;50.102;20.010;2023-10-31T10:18:31;5.95;;;5.05;;
16804;SDS011;8520;50.102;20.010;2023-10-31T10:21:00;5.53;;;4.32;;
16804;SDS011;8520;50.102;20.010;2023-10-31T10:23:28;5.97;;;4.50;;
16804;SDS011;8520;50.102;20.010;2023-10-31T10:25:59;4.90;;;4.50;;
16804;SDS011;8520;50.102;20.010;2023-10-31T10:28:28;4.35;;;4.05;;
16804;SDS011;8520;50.102;20.010;2023-10-31T10:30:56;5.25;;;4.55;;
16804;SDS011;8520;50.102;20.010;2023-10-31T10:33:24;5.28;;;4.78;;
16804;SDS011;8520;50.102;20.010;2023-10-31T10:35:52;4.97;;;4.50;;
16804;SDS011;8520;50.102;20.010;2023-10-31T10:38:23;4.60;;;4.30;;
16804;SDS011;8520;50.102;20.010;2023-10-31T10:40:51;5.00;;;4.70;;
16804;SDS011;8520;50.102;20.010;2023-10-31T10:43:22;4.85;;;4.45;;
16804;SDS011;8520;50.102;20.010;2023-10-31T10:45:55;6.65;;;4.50;;
16804;SDS011;8520;50.102;20.010;2023-10-31T10:48:24;5.78;;;5.28;;
16804;SDS011;8520;50.102;20.010;2023-10-31T10:50:56;5.18;;;4.30;;
16804;SDS011;8520;50.102;20.010;2023-10-31T10:53:25;4.80;;;4.22;;
16804;SDS011;8520;50.102;20.010;2023-10-31T10:55:59;4.70;;;4.30;;
16804;SDS011;8520;50.102;20.010;2023-10-31T10:58:33;4.70;;;4.40;;
16804;SDS011;8520;50.102;20.010;2023-10-31T11:01:02;4.20;;;3.90;;
16804;SDS011;8520;50.102;20.010;2023-10-31T11:03:31;4.40;;;4.10;;
16804;SDS011;8520;50.102;20.010;2023-10-31T11:05:59;5.53;;;4.40;;
16804;SDS011;8520;50.102;20.010;2023-10-31T11:08:27;4.78;;;4.13;;
16804;SDS011;8520;50.102;20.010;2023-10-31T11:10:55;4.22;;;3.92;;
16804;SDS011;8520;50.102;20.010;2023-10-31T11:13:23;4.18;;;3.78;;
16804;SDS011;8520;50.102;20.010;2023-10-31T11:15:55;4.40;;;4.00;;
16804;SDS011;8520;50.102;20.010;2023-10-31T11:18:24;4.60;;;4.30;;
16804;SDS011;8520;50.102;20.010;2023-10-31T11:20:53;4.40;;;3.92;;
16804;SDS011;8520;50.102;20.010;2023-10-31T11:23:21;4.43;;;4.03;;
16804;SDS011;8520;50.102;20.010;2023-10-31T11:25:49;4.47;;;4.07;;
16804;SDS011;8520;50.102;20.010;2023-10-31T11:28:18;5.15;;;4.57;;
16804;SDS011;8520;50.102;20.010;2023-10-31T11:30:48;4.28;;;3.92;;
16804;SDS011;8520;50.102;20.010;2023-10-31T11:33:18;4.32;;;3.95;;
16804;SDS011;8520;50.102;20.010;2023-10-31T11:35:49;4.10;;;3.90;;
16804;SDS011;8520;50.102;20.010;2023-10-31T11:38:17;5.32;;;4.55;;
16804;SDS011;8520;50.102;20.010;2023-10-31T11:40:59;5.72;;;4.50;;
16804;SDS011;8520;50.102;20.010;2023-10-31T11:46:17;4.78;;;4.38;;
16804;SDS011;8520;50.102;20.010;2023-10-31T11:48:48;4.22;;;3.90;;
16804;SDS011;8520;50.102;20.010;2023-10-31T11:51:18;4.85;;;4.10;;
16804;SDS011;8520;50.102;20.010;2023-10-31T11:53:46;4.80;;;4.40;;
16804;SDS011;8520;50.102;20.010;2023-10-31T11:56:18;5.43;;;4.20;;
16804;SDS011;8520;50.102;20.010;2023-10-31T11:58:54;4.45;;;4.18;;
16804;SDS011;8520;50.102;20.010;2023-10-31T12:01:22;5.15;;;4.70;;
16804;SDS011;8520;50.102;20.010;2023-10-31T12:03:51;4.00;;;3.80;;
16804;SDS011;8520;50.102;20.010;2023-10-31T12:06:20;4.70;;;4.40;;
16804;SDS011;8520;50.102;20.010;2023-10-31T12:08:48;3.90;;;3.58;;
16804;SDS011;8520;50.102;20.010;2023-10-31T12:11:17;4.10;;;3.90;;
16804;SDS011;8520;50.102;20.010;2023-10-31T12:13:54;4.72;;;4.43;;
16804;SDS011;8520;50.102;20.010;2023-10-31T12:16:23;4.32;;;4.03;;
16804;SDS011;8520;50.102;20.010;2023-10-31T12:18:57;4.55;;;4.28;;
16804;SDS011;8520;50.102;20.010;2023-10-31T12:24:14;4.53;;;4.25;;
16804;SDS011;8520;50.102;20.010;2023-10-31T12:26:42;4.53;;;4.22;;
16804;SDS011;8520;50.102;20.010;2023-10-31T12:29:11;4.55;;;4.32;;
16804;SDS011;8520;50.102;20.010;2023-10-31T12:31:43;4.15;;;3.85;;
16804;SDS011;8520;50.102;20.010;2023-10-31T12:34:14;4.35;;;4.05;;
16804;SDS011;8520;50.102;20.010;2023-10-31T12:36:42;4.40;;;4.20;;
16804;SDS011;8520;50.102;20.010;2023-10-31T12:39:10;4.85;;;4.55;;
16804;SDS011;8520;50.102;20.010;2023-10-31T12:41:39;4.70;;;4.30;;
16804;SDS011;8520;50.102;20.010;2023-10-31T12:44:08;4.60;;;4.40;;
16804;SDS011;8520;50.102;20.010;2023-10-31T12:46:38;4.60;;;4.30;;
16804;SDS011;8520;50.102;20.010;2023-10-31T12:49:10;3.92;;;3.72;;
16804;SDS011;8520;50.102;20.010;2023-10-31T12:51:40;5.30;;;4.90;;
16804;SDS011;8520;50.102;20.010;2023-10-31T12:54:27;4.03;;;3.83;;
16804;SDS011;8520;50.102;20.010;2023-10-31T12:56:57;4.60;;;4.30;;
16804;SDS011;8520;50.102;20.010;2023-10-31T12:59:26;5.22;;;4.57;;
16804;SDS011;8520;50.102;20.010;2023-10-31T13:01:54;4.07;;;3.88;;
16804;SDS011;8520;50.102;20.010;2023-10-31T13:04:25;4.35;;;4.10;;
16804;SDS011;8520;50.102;20.010;2023-10-31T13:06:57;4.75;;;4.43;;
16804;SDS011;8520;50.102;20.010;2023-10-31T13:09:28;4.43;;;4.13;;
16804;SDS011;8520;50.102;20.010;2023-10-31T13:11:57;4.72;;;4.43;;
16804;SDS011;8520;50.102;20.010;2023-10-31T13:14:25;4.65;;;4.35;;
16804;SDS011;8520;50.102;20.010;2023-10-31T13:16:53;4.43;;;4.13;;
16804;SDS011;8520;50.102;20.010;2023-10-31T13:19:21;4.97;;;4.57;;
16804;SDS011;8520;50.102;20.010;2023-10-31T13:21:49;5.32;;;4.93;;
16804;SDS011;8520;50.102;20.010;2023-10-31T13:24:19;5.63;;;5.22;;
16804;SDS011;8520;50.102;20.010;2023-10-31T13:26:47;5.03;;;4.57;;
16804;SDS011;8520;50.102;20.010;2023-10-31T13:29:18;5.15;;;4.45;;
16804;SDS011;8520;50.102;20.010;2023-10-31T13:31:46;5.65;;;4.35;;
16804;SDS011;8520;50.102;20.010;2023-10-31T13:34:14;4.57;;;4.28;;
16804;SDS011;8520;50.102;20.010;2023-10-31T13:36:43;5.20;;;4.80;;
16804;SDS011;8520;50.102;20.010;2023-10-31T13:39:11;5.75;;;4.00;;
16804;SDS011;8520;50.102;20.010;2023-10-31T13:41:40;5.15;;;4.78;;
16804;SDS011;8520;50.102;20.010;2023-10-31T13:44:08;4.40;;;4.20;;
16804;SDS011;8520;50.102;20.010;2023-10-31T13:46:36;4.82;;;4.53;;
16804;SDS011;8520;50.102;20.010;2023-10-31T13:49:04;5.20;;;4.80;;
16804;SDS011;8520;50.102;20.010;2023-10-31T13:51:34;5.13;;;4.72;;
16804;SDS011;8520;50.102;20.010;2023-10-31T13:54:02;5.68;;;5.20;;
16804;SDS011;8520;50.102;20.010;2023-10-31T13:56:30;6.15;;;5.65;;
16804;SDS011;8520;50.102;20.010;2023-10-31T13:59:03;6.65;;;6.15;;
16804;SDS011;8520;50.102;20.010;2023-10-31T14:01:31;7.85;;;7.35;;
16804;SDS011;8520;50.102;20.010;2023-10-31T14:03:59;10.13;;;9.57;;
16804;SDS011;8520;50.102;20.010;2023-10-31T14:06:27;11.27;;;10.68;;
16804;SDS011;8520;50.102;20.010;2023-10-31T14:08:59;13.30;;;12.60;;
16804;SDS011;8520;50.102;20.010;2023-10-31T14:11:27;15.57;;;14.73;;
16804;SDS011;8520;50.102;20.010;2023-10-31T14:13:55;16.45;;;15.65;;
16804;SDS011;8520;50.102;20.010;2023-10-31T14:16:28;18.60;;;17.70;;
16804;SDS011;8520;50.102;20.010;2023-10-31T14:18:56;18.77;;;17.98;;
16804;SDS011;8520;50.102;20.010;2023-10-31T14:21:24;20.02;;;19.13;;
16804;SDS011;8520;50.102;20.010;2023-10-31T14:23:52;21.02;;;20.13;;
16804;SDS011;8520;50.102;20.010;2023-10-31T14:26:30;23.33;;;22.02;;
16804;SDS011;8520;50.102;20.010;2023-10-31T14:28:59;24.80;;;23.38;;
16804;SDS011;8520;50.102;20.010;2023-10-31T14:31:28;26.10;;;24.70;;
16804;SDS011;8520;50.102;20.010;2023-10-31T14:33:56;27.27;;;25.75;;
16804;SDS011;8520;50.102;20.010;2023-10-31T14:36:25;29.73;;;28.38;;
16804;SDS011;8520;50.102;20.010;2023-10-31T14:38:53;31.20;;;29.88;;
16804;SDS011;8520;50.102;20.010;2023-10-31T14:41:21;34.17;;;32.67;;
16804;SDS011;8520;50.102;20.010;2023-10-31T14:43:50;37.72;;;35.92;;
16804;SDS011;8520;50.102;20.010;2023-10-31T14:46:18;41.75;;;39.65;;
16804;SDS011;8520;50.102;20.010;2023-10-31T14:48:47;46.17;;;43.88;;
16804;SDS011;8520;50.102;20.010;2023-10-31T14:51:16;48.35;;;46.00;;